Time;durP1;ratioP1;P1;durP2;ratioP2;P2;SDS_P1;SDS_P2;PMS_P1;PMS_P2;Temp;Humidity;BMP_temperature;BMP_pressure;BME280_temperature;BME280_humidity;BME280_pressure;Samples;Min_cycle;Max_cycle;Signal;HPM_P1;HPM_P2
2022/11/11 00:01:36;;;;;;;11.35;6.40;;;10.10;99.90;;;;;;5048007;28;20054;-53
2022/11/11 00:04:02;;;;;;;10.27;5.80;;;10.10;99.90;;;;;;5047378;28;20067;-53
2022/11/11 00:06:27;;;;;;;13.77;7.18;;;10.10;99.90;;;;;;5047333;28;20060;-50
2022/11/11 00:08:53;;;;;;;12.07;6.20;;;10.10;99.90;;;;;;5047609;28;20041;-51
2022/11/11 00:11:19;;;;;;;12.52;6.03;;;10.10;99.90;;;;;;5047869;28;20191;-51
2022/11/11 00:13:44;;;;;;;10.68;5.82;;;10.00;99.90;;;;;;5047755;28;20471;-52
2022/11/11 00:16:13;;;;;;;11.50;6.65;;;11.10;99.90;;;;;;5047620;28;20491;-52
2022/11/11 00:27:08;;;;;;;11.10;6.78;;;10.90;99.90;;;;;;5047610;28;20122;-48
2022/11/11 00:29:34;;;;;;;13.65;6.57;;;10.30;99.90;;;;;;5046739;28;20045;-50
2022/11/11 00:35:52;;;;;;;13.43;7.13;;;10.40;99.90;;;;;;5046684;28;20064;-53
2022/11/11 00:37:32;;;;;;;16.80;7.18;;;10.20;99.90;;;;;;5046728;28;20103;-54
2022/11/11 00:39:57;;;;;;;15.70;7.65;;;10.30;99.90;;;;;;5046818;28;20049;-53
2022/11/11 00:42:23;;;;;;;12.23;7.25;;;11.20;99.90;;;;;;5047115;28;20402;-54
2022/11/11 00:44:49;;;;;;;15.93;7.13;;;10.20;99.90;;;;;;5047164;28;20646;-53
2022/11/11 00:52:47;;;;;;;14.27;7.35;;;10.40;99.90;;;;;;5045735;28;20045;-52
2022/11/11 00:55:13;;;;;;;17.25;7.68;;;10.40;99.90;;;;;;5046598;28;20157;-52
2022/11/11 00:57:39;;;;;;;12.02;7.55;;;10.40;99.90;;;;;;5046479;28;20079;-53
2022/11/11 01:00:05;;;;;;;17.15;8.30;;;10.30;99.90;;;;;;5046489;28;20106;-53
2022/11/11 01:02:31;;;;;;;10.70;6.75;;;10.30;99.90;;;;;;5045069;28;20057;-53
2022/11/11 01:04:56;;;;;;;18.35;8.00;;;10.80;99.90;;;;;;5046562;28;20043;-54
2022/11/11 01:07:22;;;;;;;14.40;7.82;;;10.30;99.90;;;;;;5046512;28;20076;-52
2022/11/11 01:09:48;;;;;;;13.93;8.02;;;10.30;99.90;;;;;;5046560;28;20048;-52
2022/11/11 01:12:14;;;;;;;18.02;7.45;;;10.20;99.90;;;;;;5046332;28;20118;-52
2022/11/11 01:14:40;;;;;;;14.27;7.60;;;10.30;99.90;;;;;;5046326;28;20040;-52
2022/11/11 01:17:06;;;;;;;15.43;7.97;;;10.20;99.90;;;;;;5046751;28;20043;-53
2022/11/11 01:19:31;;;;;;;12.18;7.80;;;10.30;99.90;;;;;;5046112;28;20391;-53
2022/11/11 01:21:57;;;;;;;13.90;8.02;;;10.30;99.90;;;;;;5046682;28;20133;-53
2022/11/11 01:24:23;;;;;;;15.40;8.18;;;10.00;99.90;;;;;;5046298;28;20565;-53
2022/11/11 01:26:49;;;;;;;15.60;8.80;;;10.00;99.90;;;;;;5046136;28;20498;-53
2022/11/11 01:29:15;;;;;;;15.70;8.10;;;9.90;99.90;;;;;;5044654;28;20064;-53
2022/11/11 01:31:41;;;;;;;16.88;8.55;;;9.80;99.90;;;;;;5045298;28;20072;-52
2022/11/11 01:34:06;;;;;;;21.55;8.77;;;9.80;99.90;;;;;;5045387;28;20378;-53
2022/11/11 01:36:32;;;;;;;18.33;9.30;;;10.60;99.90;;;;;;5045996;28;20151;-53
2022/11/11 01:38:59;;;;;;;19.55;9.10;;;9.70;99.90;;;;;;5045886;28;20123;-53
2022/11/11 01:41:31;;;;;;;17.98;8.70;;;9.60;99.90;;;;;;5046313;28;20041;-53
2022/11/11 01:43:57;;;;;;;;;;;9.40;99.90;;;;;;5046660;28;20483;-50
2022/11/11 01:46:48;;;;;;;15.35;8.90;;;9.50;99.90;;;;;;5046159;28;19927;-52
2022/11/11 01:49:42;;;;;;;12.93;9.20;;;9.40;99.90;;;;;;5045980;28;20483;-50
2022/11/11 01:52:26;;;;;;;16.30;9.25;;;9.40;99.90;;;;;;5046040;28;20045;-53
2022/11/11 01:55:00;;;;;;;15.65;9.70;;;9.40;99.90;;;;;;5045861;28;20068;-51
2022/11/11 01:57:53;;;;;;;18.83;10.20;;;9.30;99.90;;;;;;5045575;28;20513;-53
2022/11/11 02:00:20;;;;;;;22.48;10.98;;;9.30;99.90;;;;;;5045724;28;20033;-51
2022/11/11 02:02:52;;;;;;;21.65;11.40;;;9.20;99.90;;;;;;5045373;28;20087;-52
2022/11/11 02:08:13;;;;;;;21.17;11.70;;;9.10;99.90;;;;;;5045950;28;20049;-53
2022/11/11 02:10:43;;;;;;;17.08;11.38;;;9.10;99.90;;;;;;5045041;28;20094;-52
2022/11/11 02:15:57;;;;;;;26.02;12.32;;;9.10;99.90;;;;;;5045406;28;20110;-53
2022/11/11 02:18:23;;;;;;;17.75;12.23;;;9.10;99.90;;;;;;5045443;28;20513;-54
2022/11/11 02:20:49;;;;;;;21.10;13.00;;;8.80;99.90;;;;;;5044849;28;20044;-50
2022/11/11 02:23:46;;;;;;;25.58;13.07;;;9.00;99.90;;;;;;5045127;28;20044;-51
2022/11/11 02:26:15;;;;;;;26.17;13.48;;;9.10;99.90;;;;;;5045197;28;20045;-51
2022/11/11 02:28:42;;;;;;;20.27;13.95;;;9.10;99.90;;;;;;5045118;28;20033;-51
2022/11/11 02:31:08;;;;;;;24.85;15.13;;;9.00;99.90;;;;;;5045875;28;20064;-53
2022/11/11 02:33:34;;;;;;;26.10;15.38;;;9.10;99.90;;;;;;5048872;28;20045;-52
2022/11/11 02:36:01;;;;;;;21.73;13.80;;;8.90;99.90;;;;;;5048988;28;20048;-52
2022/11/11 02:38:28;;;;;;;25.88;14.82;;;9.80;99.90;;;;;;5049339;28;20041;-52
2022/11/11 02:43:38;;;;;;;23.23;15.45;;;9.80;99.90;;;;;;5049270;28;20242;-50
2022/11/11 02:46:05;;;;;;;22.60;15.82;;;8.90;99.90;;;;;;5049266;28;20120;-50
2022/11/11 02:48:31;;;;;;;22.38;15.68;;;8.80;99.90;;;;;;5049073;28;20399;-49
2022/11/11 02:50:57;;;;;;;26.88;16.63;;;8.90;99.90;;;;;;5048921;28;20426;-50
2022/11/11 02:53:23;;;;;;;23.23;15.48;;;9.90;99.90;;;;;;5049059;28;20072;-53
2022/11/11 02:55:49;;;;;;;23.08;17.38;;;9.30;99.90;;;;;;5048862;28;20573;-53
2022/11/11 02:58:15;;;;;;;23.10;16.02;;;9.80;99.90;;;;;;5049576;28;20478;-49
2022/11/11 03:00:41;;;;;;;27.85;15.98;;;9.40;99.90;;;;;;5048893;28;20406;-53
2022/11/11 03:03:08;;;;;;;29.00;18.20;;;9.70;99.90;;;;;;5049092;28;20179;-53
2022/11/11 03:05:34;;;;;;;30.02;17.08;;;9.50;99.90;;;;;;5049256;28;20474;-54
2022/11/11 03:07:59;;;;;;;27.25;16.85;;;9.60;99.90;;;;;;5048784;28;20792;-52
2022/11/11 03:10:25;;;;;;;25.83;17.60;;;9.90;99.90;;;;;;5048723;28;20756;-53
2022/11/11 03:12:51;;;;;;;26.90;17.45;;;9.60;99.90;;;;;;5048008;28;20421;-53
2022/11/11 03:15:16;;;;;;;24.33;17.77;;;9.60;99.90;;;;;;5048289;28;20491;-53
2022/11/11 03:17:42;;;;;;;24.77;17.80;;;9.70;99.90;;;;;;5046782;28;20384;-52
2022/11/11 03:23:03;;;;;;;28.95;19.25;;;9.50;99.90;;;;;;5047152;28;20825;-53
2022/11/11 03:25:39;;;;;;;31.73;18.53;;;9.50;99.90;;;;;;5048657;28;20036;-53
2022/11/11 03:28:15;;;;;;;24.98;18.63;;;9.60;99.90;;;;;;5047026;28;20059;-54
2022/11/11 03:30:43;;;;;;;24.83;17.55;;;9.70;99.90;;;;;;5046601;28;20044;-52
2022/11/11 03:33:09;;;;;;;26.60;17.95;;;10.80;99.90;;;;;;5048468;28;20048;-50
2022/11/11 03:35:35;;;;;;;27.83;19.90;;;9.40;99.90;;;;;;5046430;28;20107;-53
2022/11/11 03:38:14;;;;;;;24.42;19.05;;;9.70;99.90;;;;;;5048274;28;20073;-53
2022/11/11 03:40:42;;;;;;;29.83;19.00;;;10.40;99.90;;;;;;5047975;28;20090;-54
2022/11/11 03:43:08;;;;;;;32.17;18.63;;;10.30;99.90;;;;;;5048081;28;20041;-53
2022/11/11 03:45:33;;;;;;;31.98;18.70;;;9.70;99.90;;;;;;5048374;28;20121;-54
2022/11/11 03:47:59;;;;;;;29.13;20.52;;;9.80;99.90;;;;;;5047452;28;20078;-53
2022/11/11 03:50:24;;;;;;;29.65;18.88;;;9.90;99.90;;;;;;5047986;28;20091;-51
2022/11/11 03:52:50;;;;;;;29.70;20.85;;;10.00;99.90;;;;;;5047602;28;20049;-52
2022/11/11 03:55:16;;;;;;;27.92;18.60;;;10.40;99.90;;;;;;5048146;28;20037;-53
2022/11/11 03:57:44;;;;;;;27.88;19.15;;;9.90;99.90;;;;;;5047427;28;20080;-51
2022/11/11 04:00:12;;;;;;;26.52;20.27;;;10.00;99.90;;;;;;5047767;28;20360;-53
2022/11/11 04:11:13;;;;;;;33.25;21.00;;;9.70;99.90;;;;;;5047948;28;20134;-52
2022/11/11 04:16:25;;;;;;;29.00;18.75;;;10.30;99.90;;;;;;5047266;28;20052;-52
2022/11/11 04:21:42;;;;;;;31.48;20.85;;;10.60;99.90;;;;;;5047391;28;20060;-53
2022/11/11 04:27:02;;;;;;;36.10;21.13;;;9.90;99.90;;;;;;5047392;28;20041;-54
2022/11/11 04:29:29;;;;;;;31.67;21.38;;;10.40;99.90;;;;;;5047401;28;20518;-53
2022/11/11 04:35:00;;;;;;;30.00;22.25;;;9.90;99.90;;;;;;5047176;28;20129;-50
2022/11/11 04:37:30;;;;;;;31.80;21.88;;;9.90;99.90;;;;;;5047693;28;20359;-53
2022/11/11 04:42:40;;;;;;;32.95;23.20;;;9.70;99.90;;;;;;5047439;28;20102;-53
2022/11/11 04:45:41;;;;;;;31.58;22.17;;;9.80;99.90;;;;;;5047002;28;20433;-53
2022/11/11 04:48:00;;;;;;;32.75;22.70;;;9.90;99.90;;;;;;5046381;28;20044;-49
2022/11/11 04:50:31;;;;;;;32.55;22.67;;;9.70;99.90;;;;;;5047015;28;20059;-53
2022/11/11 04:52:57;;;;;;;36.00;23.35;;;9.90;99.90;;;;;;5046340;28;20053;-53
2022/11/11 04:58:08;;;;;;;33.80;23.15;;;9.90;99.90;;;;;;5046359;28;20131;-52
2022/11/11 05:00:33;;;;;;;33.00;22.67;;;9.90;99.90;;;;;;5046911;28;20124;-52
2022/11/11 05:03:14;;;;;;;33.08;22.65;;;10.20;99.90;;;;;;5046514;28;20036;-52
2022/11/11 05:08:56;;;;;;;33.70;22.42;;;10.00;99.90;;;;;;5046717;28;20127;-53
2022/11/11 05:11:23;;;;;;;34.45;22.90;;;10.00;99.90;;;;;;5046701;28;20127;-52
2022/11/11 05:22:15;;;;;;;38.22;24.25;;;9.90;99.90;;;;;;5046134;28;20079;-52
2022/11/11 05:27:25;;;;;;;37.63;23.55;;;9.90;99.90;;;;;;5046274;28;20102;-52
2022/11/11 05:29:51;;;;;;;34.85;23.42;;;9.90;99.90;;;;;;5046300;28;20040;-52
2022/11/11 05:32:21;;;;;;;35.15;23.90;;;9.90;99.90;;;;;;5045639;28;20048;-53
2022/11/11 05:34:48;;;;;;;32.25;23.73;;;9.80;99.90;;;;;;5045724;28;20124;-51
2022/11/11 05:37:14;;;;;;;36.95;23.35;;;9.90;99.90;;;;;;5046374;28;20044;-54
2022/11/11 05:39:40;;;;;;;35.95;23.92;;;10.50;99.90;;;;;;5046278;28;20398;-53
2022/11/11 05:42:06;;;;;;;34.33;23.05;;;9.90;99.90;;;;;;5044149;28;20041;-54
2022/11/11 05:44:32;;;;;;;31.30;22.10;;;10.00;99.90;;;;;;5045983;28;20045;-53
2022/11/11 05:46:57;;;;;;;31.58;22.98;;;9.90;99.90;;;;;;5045462;28;20051;-53
2022/11/11 05:49:24;;;;;;;34.63;22.67;;;10.00;99.90;;;;;;5046228;28;20072;-53
2022/11/11 05:51:50;;;;;;;36.80;23.27;;;9.90;99.90;;;;;;5044253;28;20087;-52
2022/11/11 05:54:16;;;;;;;33.08;22.92;;;9.70;99.90;;;;;;5045705;28;20121;-52
2022/11/11 05:56:42;;;;;;;33.97;22.63;;;9.70;99.90;;;;;;5046109;28;20040;-54
2022/11/11 05:59:08;;;;;;;38.15;24.23;;;10.30;99.90;;;;;;5045498;28;20380;-52
2022/11/11 06:01:34;;;;;;;35.40;23.60;;;9.90;99.90;;;;;;5045878;28;20049;-53
2022/11/11 06:04:00;;;;;;;33.55;22.92;;;10.00;99.90;;;;;;5045268;28;20453;-53
2022/11/11 06:06:26;;;;;;;31.70;22.92;;;9.70;99.90;;;;;;5044783;28;20040;-52
2022/11/11 06:08:52;;;;;;;32.63;22.48;;;10.10;99.90;;;;;;5045669;28;20083;-52
2022/11/11 06:11:18;;;;;;;33.67;22.98;;;10.10;99.90;;;;;;5045349;28;20040;-52
2022/11/11 06:13:44;;;;;;;33.80;21.77;;;10.70;99.90;;;;;;5045268;28;20052;-52
2022/11/11 06:16:09;;;;;;;36.60;24.30;;;10.00;99.90;;;;;;5045341;28;20051;-52
2022/11/11 06:18:35;;;;;;;36.13;23.35;;;10.10;99.90;;;;;;5045417;28;20043;-53
2022/11/11 06:21:01;;;;;;;35.70;22.92;;;9.90;99.90;;;;;;5045583;28;20473;-54
2022/11/11 06:23:28;;;;;;;28.52;21.75;;;10.30;99.90;;;;;;5045611;28;20036;-53
2022/11/11 06:26:12;;;;;;;37.63;21.73;;;9.90;99.90;;;;;;5045522;28;20037;-50
2022/11/11 06:28:52;;;;;;;32.25;23.00;;;10.00;99.90;;;;;;5045567;28;20573;-54
2022/11/11 06:31:20;;;;;;;37.60;21.90;;;10.10;99.90;;;;;;5045533;28;20055;-52
2022/11/11 06:33:46;;;;;;;30.90;21.95;;;10.00;99.90;;;;;;5044779;28;20040;-51
2022/11/11 06:36:14;;;;;;;32.80;21.73;;;10.10;99.90;;;;;;5045402;28;20063;-50
2022/11/11 06:38:41;;;;;;;32.50;21.88;;;10.30;99.90;;;;;;5045446;28;20044;-51
2022/11/11 06:41:07;;;;;;;30.48;20.92;;;10.40;99.90;;;;;;5045310;28;20051;-51
2022/11/11 06:43:33;;;;;;;32.13;21.92;;;10.80;99.90;;;;;;5045175;28;20044;-51
2022/11/11 06:45:59;;;;;;;36.22;22.33;;;10.10;99.90;;;;;;5045351;28;20049;-53
2022/11/11 06:48:26;;;;;;;30.08;22.38;;;9.90;99.90;;;;;;5044741;28;20049;-51
2022/11/11 06:50:53;;;;;;;33.17;20.58;;;10.10;99.90;;;;;;5045060;28;20405;-51
2022/11/11 06:53:20;;;;;;;32.42;21.27;;;10.10;99.90;;;;;;5044754;28;20490;-49
2022/11/11 06:55:45;;;;;;;30.45;20.58;;;10.30;99.90;;;;;;5044827;28;20102;-53
2022/11/11 06:58:15;;;;;;;37.35;21.92;;;10.10;99.90;;;;;;5044612;28;20049;-50
2022/11/11 07:00:41;;;;;;;34.30;21.73;;;10.10;99.90;;;;;;5043566;28;20053;-51
2022/11/11 07:03:09;;;;;;;27.73;19.45;;;10.10;99.90;;;;;;5044695;28;20044;-52
2022/11/11 07:05:35;;;;;;;28.13;20.58;;;10.00;99.90;;;;;;5045186;28;20462;-49
2022/11/11 07:08:07;;;;;;;28.00;19.85;;;10.90;99.90;;;;;;5044971;28;20502;-53
2022/11/11 07:10:34;;;;;;;34.63;21.13;;;10.10;99.90;;;;;;5043436;28;20040;-53
2022/11/11 07:13:00;;;;;;;32.00;20.52;;;9.80;99.90;;;;;;5044366;28;20148;-56
2022/11/11 07:15:26;;;;;;;30.65;20.80;;;9.90;99.90;;;;;;5044869;28;20055;-53
2022/11/11 07:17:52;;;;;;;32.33;20.15;;;10.00;99.90;;;;;;5047881;28;20049;-51
2022/11/11 07:20:18;;;;;;;29.52;20.63;;;10.20;99.90;;;;;;5048421;28;20098;-53
2022/11/11 07:22:44;;;;;;;30.17;20.30;;;10.20;99.90;;;;;;5048838;28;20037;-53
2022/11/11 07:25:10;;;;;;;30.27;20.48;;;10.20;99.90;;;;;;5048953;28;20047;-53
2022/11/11 07:27:37;;;;;;;29.23;19.10;;;10.20;99.90;;;;;;5048944;28;20040;-52
2022/11/11 07:30:04;;;;;;;34.42;21.48;;;10.00;99.90;;;;;;5048595;28;20053;-53
2022/11/11 07:32:29;;;;;;;35.60;21.92;;;10.20;99.90;;;;;;5048510;28;20041;-53
2022/11/11 07:34:55;;;;;;;28.58;18.92;;;10.00;99.90;;;;;;5047782;28;20495;-53
2022/11/11 07:37:21;;;;;;;32.83;18.52;;;10.20;99.90;;;;;;5048002;28;20048;-53
2022/11/11 07:39:47;;;;;;;31.98;19.42;;;10.00;99.90;;;;;;5048116;28;20082;-52
2022/11/11 07:42:13;;;;;;;43.60;19.98;;;11.00;99.90;;;;;;5048036;28;20040;-54
2022/11/11 07:44:38;;;;;;;24.52;18.65;;;10.30;99.90;;;;;;5048259;28;20041;-53
2022/11/11 07:47:04;;;;;;;30.20;19.17;;;10.80;99.90;;;;;;5048175;28;20081;-53
2022/11/11 07:49:30;;;;;;;29.92;19.88;;;10.30;99.90;;;;;;5048222;28;20045;-50
2022/11/11 07:51:55;;;;;;;29.05;18.67;;;10.30;99.90;;;;;;5048323;28;20538;-52
2022/11/11 07:54:21;;;;;;;31.05;19.30;;;10.30;99.90;;;;;;5048191;28;20124;-49
2022/11/11 07:56:47;;;;;;;29.85;19.42;;;10.40;99.90;;;;;;5048576;28;20110;-51
2022/11/11 07:59:12;;;;;;;26.38;18.58;;;10.40;99.90;;;;;;5047988;28;20037;-53
2022/11/11 08:01:38;;;;;;;26.48;18.58;;;10.40;99.90;;;;;;5047880;28;20091;-53
2022/11/11 08:04:03;;;;;;;27.75;18.50;;;10.50;99.90;;;;;;5047848;28;20118;-54
2022/11/11 08:06:29;;;;;;;26.40;18.40;;;10.50;99.90;;;;;;5047814;28;20095;-54
2022/11/11 08:08:55;;;;;;;22.85;17.63;;;10.50;99.90;;;;;;5048060;28;20044;-51
2022/11/11 08:13:39;;;;;;;26.83;17.55;;;10.50;99.90;;;;;;5047471;28;20045;-53
2022/11/11 08:14:07;;;;;;;23.98;17.27;;;11.40;99.90;;;;;;5047892;28;20099;-53
2022/11/11 08:16:32;;;;;;;28.35;18.60;;;10.50;99.90;;;;;;5047617;28;20639;-53
2022/11/11 08:18:58;;;;;;;27.85;18.05;;;10.60;99.90;;;;;;5047623;28;20084;-52
2022/11/11 08:21:24;;;;;;;25.70;17.75;;;10.60;99.90;;;;;;5047661;28;20048;-53
2022/11/11 08:23:50;;;;;;;23.70;16.77;;;10.60;99.90;;;;;;5047584;28;20056;-53
2022/11/11 08:26:17;;;;;;;24.10;16.83;;;10.60;99.90;;;;;;5047400;28;20393;-50
2022/11/11 08:28:43;;;;;;;25.15;17.55;;;10.70;99.90;;;;;;5046470;28;20055;-54
2022/11/11 08:31:09;;;;;;;27.35;16.92;;;11.10;99.90;;;;;;5047130;28;20049;-53
2022/11/11 08:33:35;;;;;;;26.80;17.25;;;10.70;99.90;;;;;;5047358;28;20051;-54
2022/11/11 08:36:01;;;;;;;26.20;16.25;;;10.80;99.90;;;;;;5047127;28;20045;-53
2022/11/11 08:38:26;;;;;;;24.75;17.05;;;11.00;99.90;;;;;;5047210;28;20051;-52
2022/11/11 08:40:52;;;;;;;26.02;16.45;;;10.80;99.90;;;;;;5047088;28;20131;-53
2022/11/11 08:43:19;;;;;;;26.13;17.30;;;10.80;99.90;;;;;;5046720;28;20041;-54
2022/11/11 08:45:45;;;;;;;27.63;16.25;;;11.50;99.90;;;;;;5047108;28;20048;-53
2022/11/11 08:48:11;;;;;;;23.52;16.00;;;10.80;99.90;;;;;;5046847;28;20049;-53
2022/11/11 08:50:39;;;;;;;25.83;16.42;;;11.00;99.90;;;;;;5046634;28;20045;-53
2022/11/11 08:53:09;;;;;;;26.63;16.67;;;11.20;99.90;;;;;;5047147;28;20053;-53
2022/11/11 08:55:35;;;;;;;23.35;15.95;;;11.00;99.90;;;;;;5046345;28;20055;-53
2022/11/11 08:58:04;;;;;;;22.70;15.57;;;12.00;99.90;;;;;;5046701;28;20478;-53
2022/11/11 09:00:31;;;;;;;22.40;16.02;;;11.90;99.90;;;;;;5046091;28;20390;-53
2022/11/11 09:03:01;;;;;;;26.73;14.82;;;12.00;99.90;;;;;;5046372;28;20049;-51
2022/11/11 09:05:27;;;;;;;21.08;15.00;;;11.40;99.90;;;;;;5046752;28;20048;-53
2022/11/11 09:07:52;;;;;;;25.52;15.73;;;11.50;99.90;;;;;;5047206;28;20048;-53
2022/11/11 09:10:18;;;;;;;23.77;14.20;;;11.50;99.90;;;;;;5045766;28;20044;-52
2022/11/11 09:12:44;;;;;;;20.85;13.52;;;11.80;99.90;;;;;;5047206;28;20069;-52
2022/11/11 09:15:09;;;;;;;16.75;14.32;;;11.60;99.90;;;;;;5048046;28;20056;-53
2022/11/11 09:17:35;;;;;;;18.80;14.13;;;12.40;99.90;;;;;;5007989;28;20057;-51
2022/11/11 09:20:01;;;;;;;20.20;14.48;;;11.70;99.90;;;;;;5024230;28;20595;-49
2022/11/11 09:22:26;;;;;;;21.77;13.73;;;11.90;99.90;;;;;;5023534;28;20485;-52
2022/11/11 09:24:52;;;;;;;17.20;12.98;;;11.50;99.90;;;;;;5023785;28;20069;-49
2022/11/11 09:27:18;;;;;;;19.90;13.93;;;11.70;99.90;;;;;;5023357;28;20050;-49
2022/11/11 09:29:43;;;;;;;26.63;13.35;;;11.70;99.90;;;;;;5023163;28;20052;-53
2022/11/11 09:32:09;;;;;;;21.20;13.45;;;11.80;99.90;;;;;;5023217;28;20080;-49
2022/11/11 09:34:35;;;;;;;17.02;13.05;;;11.80;99.90;;;;;;5023017;28;20044;-51
2022/11/11 09:37:00;;;;;;;18.65;12.60;;;11.80;99.90;;;;;;5023050;28;20037;-56
2022/11/11 09:39:26;;;;;;;23.27;13.45;;;11.70;99.90;;;;;;5023150;28;20037;-56
2022/11/11 09:42:02;;;;;;;18.33;12.98;;;11.80;99.90;;;;;;5022149;28;20225;-56
2022/11/11 09:45:18;;;;;;;20.67;12.65;;;11.90;99.90;;;;;;4999126;28;20054;-54
2022/11/11 09:48:28;;;;;;;17.27;12.55;;;11.90;99.90;;;;;;5010213;28;20744;-55
2022/11/11 09:50:58;;;;;;;17.83;12.07;;;11.90;99.90;;;;;;5023855;28;20115;-55
2022/11/11 09:53:32;;;;;;;19.83;11.48;;;12.00;99.90;;;;;;5023336;28;20055;-55
2022/11/11 09:56:05;;;;;;;17.95;11.98;;;12.40;99.90;;;;;;5025541;28;20684;-61
2022/11/11 09:58:35;;;;;;;16.33;11.32;;;12.10;99.90;;;;;;5021200;28;20052;-58
2022/11/11 10:01:26;;;;;;;16.70;12.13;;;12.20;99.90;;;;;;4971672;28;20059;-60
2022/11/11 10:04:23;;;;;;;21.67;10.60;;;12.30;99.90;;;;;;5020804;28;20068;-62
2022/11/11 10:06:56;;;;;;;18.08;11.18;;;12.40;99.90;;;;;;5013823;28;20897;-55
2022/11/11 10:09:36;;;;;;;19.05;11.70;;;12.50;99.90;;;;;;5022851;28;20050;-58
2022/11/11 10:12:14;;;;;;;15.88;10.52;;;12.60;99.90;;;;;;5020851;28;20087;-56
2022/11/11 10:14:45;;;;;;;18.48;10.77;;;12.60;99.90;;;;;;5021897;28;20441;-57
2022/11/11 10:17:50;;;;;;;16.27;11.30;;;12.70;99.90;;;;;;5013284;28;20087;-58
2022/11/11 10:20:41;;;;;;;16.75;10.73;;;12.70;99.90;;;;;;5022195;28;20049;-60
2022/11/11 10:23:17;;;;;;;14.68;10.82;;;12.90;99.90;;;;;;5021930;28;20041;-58
2022/11/11 10:25:53;;;;;;;15.93;10.55;;;12.90;99.90;;;;;;5020366;28;20131;-57
2022/11/11 10:28:22;;;;;;;14.82;10.55;;;12.90;99.90;;;;;;5019822;28;20574;-58
2022/11/11 10:30:50;;;;;;;15.98;10.68;;;12.90;99.90;;;;;;5021069;28;20057;-58
2022/11/11 10:33:26;;;;;;;17.00;10.57;;;13.00;99.90;;;;;;5020420;28;20819;-57
2022/11/11 10:35:52;;;;;;;13.20;10.25;;;12.90;99.90;;;;;;5020324;28;20120;-57
2022/11/11 10:38:44;;;;;;;14.88;9.95;;;13.10;99.90;;;;;;5020349;28;20081;-57
2022/11/11 10:41:20;;;;;;;15.93;10.25;;;13.30;99.90;;;;;;5021819;28;20046;-56
2022/11/11 10:43:46;;;;;;;16.95;9.95;;;13.10;99.90;;;;;;5003212;28;20048;-56
2022/11/11 10:46:12;;;;;;;16.95;10.50;;;13.10;99.90;;;;;;5021909;28;20116;-57
2022/11/11 10:48:50;;;;;;;15.52;10.27;;;13.10;99.90;;;;;;5020448;28;20179;-57
2022/11/11 10:51:17;;;;;;;14.43;10.52;;;13.10;99.90;;;;;;5021550;28;20045;-55
2022/11/11 10:53:59;;;;;;;13.30;9.80;;;13.10;99.90;;;;;;5024453;28;20084;-58
2022/11/11 10:56:31;;;;;;;13.25;10.30;;;13.10;99.90;;;;;;5024634;28;20053;-58
2022/11/11 10:59:15;;;;;;;17.02;10.15;;;13.10;99.90;;;;;;5025772;28;20480;-58
2022/11/11 11:01:59;;;;;;;16.95;9.68;;;13.10;99.90;;;;;;5025587;28;20148;-56
2022/11/11 11:05:00;;;;;;;16.70;10.18;;;13.10;99.90;;;;;;5024115;28;20075;-57
2022/11/11 11:07:39;;;;;;;13.75;9.55;;;13.20;99.90;;;;;;4987080;28;20140;-59
2022/11/11 11:10:15;;;;;;;14.75;9.40;;;13.20;99.90;;;;;;5026469;28;20045;-59
2022/11/11 11:12:57;;;;;;;14.15;10.18;;;13.20;99.90;;;;;;5025185;28;20069;-57
2022/11/11 11:15:25;;;;;;;16.90;9.30;;;13.20;99.90;;;;;;5025373;28;20061;-57
2022/11/11 11:18:08;;;;;;;13.55;10.02;;;13.30;99.90;;;;;;5000572;28;20053;-59
2022/11/11 11:20:34;;;;;;;13.32;9.85;;;13.30;99.90;;;;;;5023613;28;20157;-63
2022/11/11 11:23:01;;;;;;;13.13;10.20;;;13.30;99.90;;;;;;5023685;28;20041;-59
2022/11/11 11:25:32;;;;;;;12.18;9.13;;;13.90;99.90;;;;;;5030986;28;20072;-56
2022/11/11 11:28:13;;;;;;;16.15;9.98;;;13.30;99.90;;;;;;5024244;28;20041;-57
2022/11/11 11:30:39;;;;;;;14.27;11.00;;;13.20;99.90;;;;;;5024500;28;20044;-55
2022/11/11 11:33:09;;;;;;;18.60;12.18;;;13.30;99.90;;;;;;5023804;28;20059;-57
2022/11/11 11:35:39;;;;;;;16.10;11.52;;;13.40;99.90;;;;;;5023688;28;20057;-57
2022/11/11 11:38:07;;;;;;;18.92;13.35;;;13.40;99.90;;;;;;5023390;28;20706;-57
2022/11/11 11:40:52;;;;;;;19.80;13.48;;;13.40;99.90;;;;;;5026650;28;20041;-61
2022/11/11 11:43:37;;;;;;;17.42;13.15;;;13.40;99.90;;;;;;5024627;28;20060;-56
2022/11/11 11:46:34;;;;;;;18.98;12.27;;;13.30;99.90;;;;;;5024666;28;20080;-56
2022/11/11 11:49:27;;;;;;;17.90;13.48;;;13.30;99.90;;;;;;5019085;28;20757;-56
2022/11/11 11:52:03;;;;;;;18.55;13.73;;;13.30;99.90;;;;;;5024639;28;20085;-58
2022/11/11 11:54:35;;;;;;;16.98;12.38;;;13.10;99.90;;;;;;5024129;28;20087;-58
2022/11/11 11:57:07;;;;;;;18.45;13.63;;;13.00;99.90;;;;;;5024607;28;20029;-57
2022/11/11 11:59:59;;;;;;;19.08;13.32;;;13.10;99.90;;;;;;5025124;28;20038;-56
2022/11/11 12:02:57;;;;;;;16.80;12.98;;;13.10;99.90;;;;;;5024624;28;20045;-57
2022/11/11 12:05:48;;;;;;;19.30;13.30;;;13.00;99.90;;;;;;5001246;28;20854;-57
2022/11/11 12:08:32;;;;;;;20.67;13.35;;;13.10;99.90;;;;;;5023179;28;20505;-58
2022/11/11 12:11:10;;;;;;;18.85;11.80;;;13.10;99.90;;;;;;5006334;28;20049;-56
2022/11/11 12:14:10;;;;;;;17.83;12.32;;;13.20;99.90;;;;;;5024379;28;20061;-58
2022/11/11 12:16:52;;;;;;;17.17;12.35;;;13.20;99.90;;;;;;5013141;28;20049;-57
2022/11/11 12:19:55;;;;;;;20.48;13.68;;;13.20;99.90;;;;;;5047229;28;20456;-57
2022/11/11 12:22:47;;;;;;;16.55;12.07;;;13.30;99.90;;;;;;5047007;28;20048;-57
2022/11/11 12:25:18;;;;;;;17.48;11.68;;;13.20;99.90;;;;;;5045152;28;20140;-62
2022/11/11 12:28:00;;;;;;;15.43;10.95;;;13.30;99.90;;;;;;5046061;28;20053;-61
2022/11/11 12:30:29;;;;;;;15.15;11.18;;;13.30;99.90;;;;;;5046343;28;20029;-61
2022/11/11 12:33:19;;;;;;;13.98;9.68;;;13.40;99.90;;;;;;5046009;28;20774;-62
2022/11/11 12:35:55;;;;;;;15.90;10.05;;;13.30;99.90;;;;;;5044512;28;20489;-56
2022/11/11 12:38:52;;;;;;;16.98;9.93;;;13.30;99.90;;;;;;5028699;28;20045;-58
2022/11/11 12:41:30;;;;;;;12.05;9.07;;;13.20;99.90;;;;;;5046792;28;20147;-59
2022/11/11 12:44:06;;;;;;;14.40;8.82;;;13.20;99.90;;;;;;5047078;28;20149;-59
2022/11/11 12:46:45;;;;;;;11.43;8.75;;;13.10;99.90;;;;;;5045781;28;20047;-59
2022/11/11 12:49:19;;;;;;;13.35;9.20;;;13.00;99.90;;;;;;5046884;28;20045;-61
2022/11/11 12:52:14;;;;;;;11.40;8.50;;;12.90;99.90;;;;;;5044723;28;20053;-57
2022/11/11 12:55:17;;;;;;;17.30;8.68;;;12.90;99.90;;;;;;5046091;28;20514;-59
2022/11/11 12:57:42;;;;;;;;;;;12.90;99.90;;;;;;5047312;28;20033;-61
2022/11/11 13:00:21;;;;;;;13.65;8.85;;;12.90;99.90;;;;;;5047016;28;19925;-61
2022/11/11 13:03:14;;;;;;;18.25;9.48;;;12.90;99.90;;;;;;5028287;28;20148;-58
2022/11/11 13:06:11;;;;;;;12.55;9.38;;;12.90;99.90;;;;;;5045247;28;20057;-62
2022/11/11 13:09:14;;;;;;;12.05;8.32;;;12.90;99.90;;;;;;5044885;28;20510;-57
2022/11/11 13:11:53;;;;;;;18.75;9.35;;;12.90;99.90;;;;;;5045681;28;20150;-55
2022/11/11 13:14:57;;;;;;;14.48;8.57;;;12.90;99.90;;;;;;5045049;28;20060;-58
2022/11/11 13:17:23;;;;;;;10.52;8.48;;;12.80;99.90;;;;;;5044354;28;20126;-51
2022/11/11 13:20:05;;;;;;;13.18;8.15;;;12.60;99.90;;;;;;5045597;28;20124;-55
2022/11/11 13:22:32;;;;;;;11.18;8.57;;;12.70;99.90;;;;;;5045564;28;20048;-58
2022/11/11 13:25:01;;;;;;;13.82;9.13;;;12.60;99.90;;;;;;5044578;28;20048;-60
2022/11/11 13:27:35;;;;;;;12.23;8.43;;;12.60;99.90;;;;;;5047219;28;20041;-62
2022/11/11 13:30:20;;;;;;;11.60;7.93;;;12.60;99.90;;;;;;5045002;28;20091;-62
2022/11/11 13:33:13;;;;;;;9.70;8.32;;;12.60;99.90;;;;;;5045373;28;20051;-61
2022/11/11 13:35:53;;;;;;;10.68;8.18;;;12.60;99.90;;;;;;5044030;28;20155;-62
2022/11/11 13:38:33;;;;;;;12.18;8.32;;;12.50;99.90;;;;;;5028916;28;20041;-62
2022/11/11 13:41:04;;;;;;;13.40;8.57;;;12.50;99.90;;;;;;5046736;28;20084;-62
2022/11/11 13:43:40;;;;;;;12.75;9.20;;;12.80;99.90;;;;;;5047022;28;20056;-62
2022/11/11 13:46:23;;;;;;;14.02;8.77;;;12.30;99.90;;;;;;5045333;28;20039;-62
2022/11/11 13:48:49;;;;;;;11.15;8.68;;;12.20;99.90;;;;;;5045687;28;20386;-62
2022/11/11 13:51:30;;;;;;;12.77;9.52;;;12.10;99.90;;;;;;5046788;28;20049;-62
2022/11/11 13:53:57;;;;;;;12.55;8.80;;;12.00;99.90;;;;;;5046883;28;20037;-62
2022/11/11 13:56:37;;;;;;;14.68;9.20;;;11.90;99.90;;;;;;5047000;28;20581;-62
2022/11/11 13:59:03;;;;;;;14.63;8.77;;;11.90;99.90;;;;;;5045477;28;20639;-63
2022/11/11 14:01:37;;;;;;;12.38;9.18;;;11.70;99.90;;;;;;5047162;28;20123;-62
2022/11/11 14:04:08;;;;;;;15.23;8.57;;;11.80;99.90;;;;;;5045626;28;20079;-62